createdAt,value
2017-12-02T00:02:25.302Z,1.90
2017-12-02T00:04:53.463Z,1.80
2017-12-02T00:07:21.767Z,1.80
2017-12-02T00:09:51.051Z,1.80
2017-12-02T00:12:19.254Z,1.80
2017-12-02T00:14:47.644Z,1.80
2017-12-02T00:17:15.788Z,1.90
2017-12-02T00:19:44.845Z,1.90
2017-12-02T00:22:13.899Z,1.90
2017-12-02T00:24:42.052Z,1.90
2017-12-02T00:27:10.230Z,1.70
2017-12-02T00:29:38.432Z,1.70
2017-12-02T00:32:06.891Z,1.50
2017-12-02T00:34:35.120Z,1.40
2017-12-02T00:37:03.331Z,1.30
2017-12-02T00:39:31.518Z,1.10
2017-12-02T00:41:59.682Z,1.00
2017-12-02T00:44:27.890Z,0.90
2017-12-02T00:46:56.045Z,0.80
2017-12-02T00:49:24.209Z,0.80
2017-12-02T00:51:53.270Z,0.70
2017-12-02T00:54:21.438Z,0.70
2017-12-02T00:56:49.584Z,0.80
2017-12-02T00:59:18.522Z,0.80
2017-12-02T01:01:53.706Z,0.80
2017-12-02T01:04:27.874Z,0.80
2017-12-02T01:06:56.016Z,0.70
2017-12-02T01:09:25.225Z,0.60
2017-12-02T01:11:53.380Z,0.50
2017-12-02T01:14:22.339Z,0.40
2017-12-02T01:16:50.493Z,0.40
2017-12-02T01:19:18.657Z,0.40
2017-12-02T01:21:48.900Z,0.40
2017-12-02T01:24:17.073Z,0.30
2017-12-02T01:26:45.217Z,0.20
2017-12-02T01:29:13.388Z,0.30
2017-12-02T01:31:49.008Z,0.30
2017-12-02T01:34:17.932Z,0.40
2017-12-02T01:36:52.520Z,0.40
2017-12-02T01:39:20.678Z,0.40
2017-12-02T01:41:48.858Z,0.50
2017-12-02T01:44:17.035Z,0.40
2017-12-02T01:46:45.201Z,0.40
2017-12-02T01:49:13.349Z,0.30
2017-12-02T01:51:41.509Z,0.40
2017-12-02T01:54:09.663Z,0.30
2017-12-02T01:56:37.841Z,0.20
2017-12-02T01:59:06.118Z,0.20
2017-12-02T02:01:34.432Z,0.20
2017-12-02T02:04:02.596Z,0.10
2017-12-02T02:06:30.767Z,0.00
2017-12-02T02:08:58.959Z,-0.10
2017-12-02T02:11:34.569Z,-0.10
2017-12-02T02:14:03.781Z,-0.20
2017-12-02T02:16:31.968Z,-0.30
2017-12-02T02:19:00.141Z,-0.40
2017-12-02T02:21:29.105Z,-0.40
2017-12-02T02:23:57.269Z,-0.30
2017-12-02T02:26:25.481Z,-0.50
2017-12-02T02:28:53.878Z,-0.50
2017-12-02T02:31:22.127Z,-0.60
2017-12-02T02:33:50.309Z,-0.60
2017-12-02T02:36:18.514Z,-0.50
2017-12-02T02:38:46.678Z,-0.60
2017-12-02T02:41:17.887Z,-0.60
2017-12-02T02:43:46.190Z,-0.60
2017-12-02T02:46:14.355Z,-0.60
2017-12-02T02:48:42.525Z,-0.60
2017-12-02T02:51:15.909Z,-0.70
2017-12-02T02:53:44.077Z,-0.80
2017-12-02T02:56:12.266Z,-0.70
2017-12-02T02:58:40.446Z,-0.70
2017-12-02T03:01:14.606Z,-0.70
2017-12-02T03:03:43.548Z,-0.90
2017-12-02T03:06:11.730Z,-0.90
2017-12-02T03:08:39.900Z,-0.90
2017-12-02T03:11:08.068Z,-0.90
2017-12-02T03:13:36.244Z,-1.00
2017-12-02T03:16:05.088Z,-1.10
2017-12-02T03:18:33.256Z,-1.10
2017-12-02T03:21:01.569Z,-1.20
2017-12-02T03:23:29.740Z,-1.30
2017-12-02T03:25:57.899Z,-1.30
2017-12-02T03:28:26.502Z,-1.40
2017-12-02T03:31:01.308Z,-1.50
2017-12-02T03:33:30.244Z,-1.40
2017-12-02T03:36:06.859Z,-1.50
2017-12-02T03:38:35.030Z,-1.50
2017-12-02T03:41:10.595Z,-1.50
2017-12-02T03:43:42.875Z,-1.70
2017-12-02T03:46:11.042Z,-1.80
2017-12-02T03:48:40.045Z,-1.80
2017-12-02T03:51:10.193Z,-1.80
2017-12-02T03:53:38.342Z,-1.80
2017-12-02T03:56:06.520Z,-1.90
2017-12-02T03:58:34.684Z,-1.90
2017-12-02T04:01:02.886Z,-1.80
2017-12-02T04:03:31.058Z,-1.80
2017-12-02T04:05:59.216Z,-1.80
2017-12-02T04:08:27.398Z,-1.80
2017-12-02T04:10:57.410Z,-1.80
2017-12-02T04:13:25.572Z,-1.90
2017-12-02T04:15:53.958Z,-1.90
2017-12-02T04:18:22.132Z,-1.90
2017-12-02T04:20:50.333Z,-1.90
2017-12-02T04:23:19.280Z,-2.00
2017-12-02T04:25:48.243Z,-2.10
2017-12-02T04:28:16.431Z,-2.10
2017-12-02T04:30:44.674Z,-2.20
2017-12-02T04:33:12.845Z,-2.10
2017-12-02T04:35:41.025Z,-2.20
2017-12-02T04:38:09.182Z,-2.10
2017-12-02T04:40:38.602Z,-2.10
2017-12-02T04:43:07.523Z,-2.10
2017-12-02T04:45:35.698Z,-2.10
2017-12-02T04:48:03.874Z,-2.10
2017-12-02T04:50:32.096Z,-2.10
2017-12-02T04:53:00.271Z,-2.10
2017-12-02T04:55:28.452Z,-2.10
2017-12-02T04:57:56.674Z,-2.10
2017-12-02T05:00:28.071Z,-2.00
2017-12-02T05:02:56.245Z,-2.00
2017-12-02T05:05:26.690Z,-2.00
2017-12-02T05:07:55.692Z,-2.10
2017-12-02T05:10:27.324Z,-2.10
2017-12-02T05:12:57.470Z,-2.10
2017-12-02T05:15:25.643Z,-2.00
2017-12-02T05:17:54.098Z,-2.00
2017-12-02T05:20:25.742Z,-1.90
2017-12-02T05:22:54.022Z,-1.80
2017-12-02T05:25:22.203Z,-1.80
2017-12-02T05:27:50.381Z,-1.70
2017-12-02T05:30:19.667Z,-1.70
2017-12-02T05:32:47.871Z,-1.60
2017-12-02T05:35:16.029Z,-1.60
2017-12-02T05:37:44.197Z,-1.50
2017-12-02T05:40:12.473Z,-1.50
2017-12-02T05:42:40.645Z,-1.50
2017-12-02T05:45:08.810Z,-1.50
2017-12-02T05:47:37.014Z,-1.30
2017-12-02T05:50:07.235Z,-1.20
2017-12-02T05:52:35.419Z,-1.10
2017-12-02T05:55:03.656Z,-0.90
2017-12-02T05:57:31.828Z,-0.80
2017-12-02T06:00:01.954Z,-0.70
2017-12-02T06:02:30.133Z,-0.60
2017-12-02T06:04:59.064Z,-0.50
2017-12-02T06:07:27.254Z,-0.50
2017-12-02T06:09:55.518Z,-0.40
2017-12-02T06:12:23.675Z,-0.30
2017-12-02T06:14:51.842Z,-0.30
2017-12-02T06:17:20.849Z,-0.20
2017-12-02T06:19:52.874Z,-0.10
2017-12-02T06:22:21.176Z,-0.10
2017-12-02T06:24:49.330Z,0.00
2017-12-02T06:27:17.499Z,0.10
2017-12-02T06:29:45.773Z,0.10
2017-12-02T06:32:14.886Z,0.10
2017-12-02T06:34:43.039Z,0.00
2017-12-02T06:37:11.537Z,0.00
2017-12-02T06:39:40.735Z,0.00
2017-12-02T06:42:08.926Z,-0.10
2017-12-02T06:44:37.093Z,0.00
2017-12-02T06:47:05.267Z,0.00
2017-12-02T06:49:33.444Z,-0.10
2017-12-02T06:52:01.607Z,-0.10
2017-12-02T06:54:30.561Z,-0.20
2017-12-02T06:56:59.502Z,-0.30
2017-12-02T06:59:27.672Z,-0.30
2017-12-02T07:01:55.847Z,-0.30
2017-12-02T07:04:24.009Z,-0.30
2017-12-02T07:06:52.177Z,-0.30
2017-12-02T07:09:20.370Z,-0.30
2017-12-02T07:11:48.518Z,-0.20
2017-12-02T07:14:16.722Z,-0.10
2017-12-02T07:16:44.980Z,0.00
2017-12-02T07:19:13.158Z,0.10
2017-12-02T07:21:43.272Z,0.10
2017-12-02T07:24:11.456Z,0.10
2017-12-02T07:26:39.641Z,0.10
2017-12-02T07:29:07.796Z,0.20
2017-12-02T07:31:35.987Z,0.20
2017-12-02T07:34:04.146Z,0.30
2017-12-02T07:36:32.338Z,0.30
2017-12-02T07:39:00.526Z,0.30
2017-12-02T07:41:28.674Z,0.30
2017-12-02T07:43:56.858Z,0.40
2017-12-02T07:46:25.030Z,0.40
2017-12-02T07:48:53.203Z,0.50
2017-12-02T07:51:24.647Z,0.50
2017-12-02T07:53:52.806Z,0.60
2017-12-02T07:56:24.255Z,0.60
2017-12-02T07:58:52.419Z,0.60
2017-12-02T08:01:25.352Z,0.60
2017-12-02T08:03:53.639Z,0.60
2017-12-02T08:06:21.799Z,0.70
2017-12-02T08:08:49.989Z,0.80
2017-12-02T08:11:20.262Z,0.90
2017-12-02T08:13:48.463Z,1.00
2017-12-02T08:16:16.634Z,1.10
2017-12-02T08:18:44.800Z,1.10
2017-12-02T08:21:12.985Z,1.20
2017-12-02T08:23:41.162Z,1.20
2017-12-02T08:26:09.317Z,1.30
2017-12-02T08:28:37.500Z,1.20
2017-12-02T08:31:06.494Z,1.30
2017-12-02T08:33:34.662Z,1.30
2017-12-02T08:36:02.825Z,1.40
2017-12-02T08:38:30.994Z,1.40
2017-12-02T08:40:59.169Z,1.40
2017-12-02T08:43:27.357Z,1.50
2017-12-02T08:45:55.515Z,1.50
2017-12-02T08:48:23.655Z,1.60
2017-12-02T08:50:51.884Z,1.70
2017-12-02T08:53:20.060Z,1.80
2017-12-02T08:55:48.238Z,1.90
2017-12-02T08:58:16.444Z,2.00
2017-12-02T09:00:50.583Z,2.00
2017-12-02T09:03:19.511Z,2.20
2017-12-02T09:05:54.718Z,2.20
2017-12-02T09:08:22.898Z,2.20
2017-12-02T09:10:51.213Z,2.10
2017-12-02T09:13:19.373Z,2.10
2017-12-02T09:15:47.614Z,2.10
2017-12-02T09:18:15.778Z,2.10
2017-12-02T09:20:44.185Z,2.10
2017-12-02T09:23:13.110Z,2.10
2017-12-02T09:25:41.254Z,2.10
2017-12-02T09:28:09.687Z,2.10
2017-12-02T09:30:37.857Z,2.20
2017-12-02T09:33:06.054Z,2.30
2017-12-02T09:35:34.209Z,2.30
2017-12-02T09:38:02.389Z,2.40
2017-12-02T09:40:32.712Z,2.30
2017-12-02T09:43:00.877Z,2.30
2017-12-02T09:45:30.242Z,2.20
2017-12-02T09:47:58.432Z,2.30
2017-12-02T09:50:30.391Z,2.20
2017-12-02T09:52:59.688Z,2.20
2017-12-02T09:55:27.848Z,2.20
2017-12-02T09:57:56.700Z,2.30
2017-12-02T10:00:30.750Z,2.40
2017-12-02T10:02:58.936Z,2.30
2017-12-02T10:05:34.235Z,2.30
2017-12-02T10:08:02.425Z,2.30
2017-12-02T10:10:30.728Z,2.30
2017-12-02T10:12:58.898Z,2.30
2017-12-02T10:15:27.057Z,2.30
2017-12-02T10:17:56.113Z,2.40
2017-12-02T10:20:24.279Z,2.50
2017-12-02T10:22:52.453Z,2.70
2017-12-02T10:25:20.616Z,2.70
2017-12-02T10:27:48.832Z,2.80
2017-12-02T10:30:17.129Z,2.80
2017-12-02T10:32:45.303Z,3.00
2017-12-02T10:35:13.477Z,2.90
2017-12-02T10:37:42.596Z,2.90
2017-12-02T10:40:10.844Z,2.80
2017-12-02T10:42:39.076Z,2.80
2017-12-02T10:45:07.254Z,2.70
2017-12-02T10:47:35.441Z,2.70
2017-12-02T10:50:03.621Z,2.70
2017-12-02T10:52:32.606Z,2.60
2017-12-02T10:55:01.602Z,2.50
2017-12-02T10:57:29.820Z,2.60
2017-12-02T10:59:58.898Z,2.50
2017-12-02T12:09:08.006Z,2.80
2017-12-02T12:11:36.178Z,2.70
2017-12-02T12:14:05.109Z,2.70
2017-12-02T12:16:33.492Z,2.70
2017-12-02T12:19:01.714Z,2.70
2017-12-02T12:21:29.975Z,2.70
2017-12-02T12:23:58.157Z,2.90
2017-12-02T12:26:26.334Z,2.90
2017-12-02T12:28:54.594Z,3.00
2017-12-02T12:31:22.769Z,3.00
2017-12-02T12:33:50.922Z,2.90
2017-12-02T12:36:20.122Z,3.10
2017-12-02T12:38:49.216Z,3.10
2017-12-02T12:41:17.673Z,2.90
2017-12-02T12:43:46.378Z,2.80
2017-12-02T12:46:16.191Z,2.60
2017-12-02T12:48:47.396Z,2.60
2017-12-02T12:51:16.140Z,2.70
2017-12-02T12:53:44.305Z,2.90
2017-12-02T12:56:13.245Z,3.10
2017-12-02T12:58:42.252Z,3.10
2017-12-02T13:01:10.669Z,3.20
2017-12-02T13:03:41.267Z,3.00
2017-12-02T13:06:10.435Z,3.00
2017-12-02T13:08:40.005Z,2.80
2017-12-02T13:11:08.315Z,2.80
2017-12-02T13:13:37.427Z,2.60
2017-12-02T13:16:05.985Z,2.60
2017-12-02T13:18:35.206Z,2.60
2017-12-02T13:21:03.587Z,2.60
2017-12-02T13:23:31.895Z,2.70
2017-12-02T13:26:01.698Z,2.60
2017-12-02T13:28:34.397Z,2.30
2017-12-02T13:31:03.776Z,2.20
2017-12-02T13:33:52.677Z,2.20
2017-12-02T13:36:23.506Z,2.40
2017-12-02T13:38:52.756Z,2.40
2017-12-02T13:41:22.887Z,2.50
2017-12-02T13:43:52.747Z,2.50
2017-12-02T13:46:21.074Z,2.40
2017-12-02T13:48:57.191Z,2.30
2017-12-02T13:51:28.616Z,2.30
2017-12-02T13:53:57.614Z,2.10
2017-12-02T13:56:29.390Z,2.00
2017-12-02T13:58:58.055Z,2.10
2017-12-02T14:01:26.344Z,2.10
2017-12-02T14:03:55.343Z,1.80
2017-12-02T14:06:24.182Z,1.80
2017-12-02T14:08:56.160Z,1.80
2017-12-02T14:11:24.660Z,1.80
2017-12-02T14:13:55.984Z,1.90
2017-12-02T14:16:24.506Z,1.90
2017-12-02T14:19:02.781Z,1.90
2017-12-02T14:21:30.981Z,2.00
2017-12-02T14:23:59.629Z,2.00
2017-12-02T14:26:28.859Z,2.00
2017-12-02T14:28:58.877Z,2.00
2017-12-02T14:31:27.152Z,2.20
2017-12-02T14:33:55.368Z,2.10
2017-12-02T14:36:23.581Z,2.10
2017-12-02T14:38:57.547Z,2.10
2017-12-02T14:41:26.115Z,2.10
2017-12-02T14:43:55.183Z,1.80
2017-12-02T14:46:25.465Z,1.80
2017-12-02T14:48:53.791Z,1.80
2017-12-02T14:51:21.909Z,1.70
2017-12-02T14:53:50.074Z,1.60
2017-12-02T14:56:18.229Z,1.50
2017-12-02T14:58:47.234Z,1.50
2017-12-02T15:01:15.405Z,1.50
2017-12-02T15:03:44.339Z,1.60
2017-12-02T15:06:12.542Z,1.60
2017-12-02T15:08:40.783Z,1.70
2017-12-02T15:11:09.196Z,1.50
2017-12-02T15:13:37.356Z,1.40
2017-12-02T15:16:05.593Z,1.50
2017-12-02T15:18:33.900Z,1.50
2017-12-02T15:21:02.297Z,1.50
2017-12-02T15:23:31.340Z,1.50
2017-12-02T15:25:59.510Z,1.50
2017-12-02T15:28:34.019Z,1.50
2017-12-02T15:31:02.940Z,1.40
2017-12-02T15:33:32.142Z,1.40
2017-12-02T15:36:01.184Z,1.40
2017-12-02T15:38:34.648Z,1.40
2017-12-02T15:41:02.906Z,1.30
2017-12-02T15:43:31.343Z,1.30
2017-12-02T15:46:00.040Z,1.20
2017-12-02T15:48:28.343Z,1.10
2017-12-02T15:50:56.519Z,1.10
2017-12-02T15:53:24.729Z,1.00
2017-12-02T15:55:52.959Z,1.00
2017-12-02T15:58:22.054Z,0.90
2017-12-02T16:00:50.329Z,0.90
2017-12-02T16:03:18.484Z,0.90
2017-12-02T16:05:46.655Z,0.90
2017-12-02T16:08:14.961Z,0.90
2017-12-02T16:10:43.108Z,1.00
2017-12-02T16:13:12.066Z,1.10
2017-12-02T16:15:40.756Z,1.10
2017-12-02T16:18:12.390Z,1.10
2017-12-02T16:20:40.600Z,1.10
2017-12-02T16:23:08.770Z,1.10
2017-12-02T16:25:36.925Z,1.20
2017-12-02T16:28:07.125Z,1.30
2017-12-02T16:30:35.282Z,1.30
2017-12-02T16:33:03.441Z,1.30
2017-12-02T16:35:31.616Z,1.20
2017-12-02T16:38:00.848Z,1.20
2017-12-02T16:40:30.042Z,1.20
2017-12-02T16:42:58.580Z,1.20
2017-12-02T16:45:26.752Z,1.20
2017-12-02T16:47:54.975Z,1.20
2017-12-02T16:50:23.157Z,1.30
2017-12-02T16:52:51.316Z,1.30
2017-12-02T16:55:20.271Z,1.30
2017-12-02T16:57:50.578Z,1.30
2017-12-02T17:00:18.791Z,1.30
2017-12-02T17:02:46.982Z,1.20
2017-12-02T17:05:15.149Z,1.10
2017-12-02T17:07:43.319Z,1.10
2017-12-02T17:10:12.416Z,1.10
2017-12-02T17:12:40.584Z,1.10
2017-12-02T17:15:09.775Z,1.10
2017-12-02T17:17:38.784Z,1.10
2017-12-02T17:20:08.110Z,1.10
2017-12-02T17:22:36.284Z,1.10
2017-12-02T17:25:04.510Z,1.10
2017-12-02T17:27:32.710Z,1.10
2017-12-02T17:30:01.379Z,1.20
2017-12-02T17:32:30.537Z,1.20
2017-12-02T17:34:58.696Z,1.20
2017-12-02T17:37:27.498Z,1.30
2017-12-02T17:39:55.666Z,1.30
2017-12-02T17:42:23.859Z,1.30
2017-12-02T17:44:52.654Z,1.30
2017-12-02T17:47:21.810Z,1.30
2017-12-02T17:49:49.959Z,1.40
2017-12-02T17:52:18.109Z,1.40
2017-12-02T17:54:46.269Z,1.40
2017-12-02T17:57:14.440Z,1.30
2017-12-02T17:59:44.089Z,1.30
2017-12-02T18:02:12.375Z,1.30
2017-12-02T18:04:40.512Z,1.30
2017-12-02T18:07:08.674Z,1.30
2017-12-02T18:09:37.609Z,1.40
2017-12-02T18:12:05.763Z,1.30
2017-12-02T18:14:33.984Z,1.30
2017-12-02T18:17:02.411Z,1.40
2017-12-02T18:19:50.785Z,1.40
2017-12-02T18:22:18.973Z,1.50
2017-12-02T18:24:47.163Z,1.50
2017-12-02T18:27:15.314Z,1.50
2017-12-02T18:29:43.609Z,1.50
2017-12-02T18:32:11.857Z,1.50
2017-12-02T18:34:40.027Z,1.50
2017-12-02T18:37:08.180Z,1.50
2017-12-02T18:39:38.340Z,1.30
2017-12-02T18:42:06.543Z,1.30
2017-12-02T18:44:34.800Z,1.30
2017-12-02T18:47:02.964Z,1.30
2017-12-02T18:49:35.157Z,1.20
2017-12-02T18:52:03.393Z,1.10
2017-12-02T18:54:31.574Z,1.10
2017-12-02T18:56:59.828Z,1.00
2017-12-02T18:59:30.874Z,0.90
2017-12-02T19:01:59.062Z,0.90
2017-12-02T19:04:27.238Z,0.90
2017-12-02T19:06:55.390Z,0.90
2017-12-02T19:09:24.688Z,0.80
2017-12-02T19:11:53.622Z,0.70
2017-12-02T19:14:21.803Z,0.70
2017-12-02T19:16:49.952Z,0.80
2017-12-02T19:19:19.182Z,0.80
2017-12-02T19:21:47.359Z,0.70
2017-12-02T19:24:15.520Z,0.80
2017-12-02T19:26:43.689Z,0.80
2017-12-02T19:29:14.755Z,0.80
2017-12-02T19:31:42.987Z,0.80
2017-12-02T19:34:11.164Z,0.70
2017-12-02T19:36:39.350Z,0.70
2017-12-02T19:39:07.653Z,0.80
2017-12-02T19:41:35.813Z,0.80
2017-12-02T19:44:04.031Z,0.80
2017-12-02T19:46:32.222Z,0.80
2017-12-02T19:49:00.564Z,0.80
2017-12-02T19:51:28.719Z,0.80
2017-12-02T19:53:56.930Z,0.80
2017-12-02T19:56:25.197Z,0.80
2017-12-02T19:58:53.451Z,0.80
2017-12-02T20:01:21.624Z,0.80
2017-12-02T20:03:49.781Z,0.90
2017-12-02T20:06:17.943Z,0.90
2017-12-02T20:08:47.761Z,0.90
2017-12-02T20:11:16.248Z,0.90
2017-12-02T20:13:44.438Z,1.00
2017-12-02T20:16:12.679Z,1.00
2017-12-02T20:18:40.882Z,1.10
2017-12-02T20:21:09.778Z,1.10
2017-12-02T20:23:37.955Z,1.10
2017-12-02T20:26:06.677Z,1.10
2017-12-02T20:28:37.679Z,1.10
2017-12-02T20:31:06.173Z,1.10
2017-12-02T20:33:34.403Z,1.10
2017-12-02T20:36:02.548Z,1.10
2017-12-02T20:38:31.771Z,1.10
2017-12-02T20:40:59.938Z,1.10
2017-12-02T20:43:28.926Z,1.00
2017-12-02T20:45:57.081Z,1.00
2017-12-02T20:48:25.312Z,1.10
2017-12-02T20:50:53.492Z,1.10
2017-12-02T20:53:21.640Z,1.10
2017-12-02T20:55:49.835Z,1.00
2017-12-02T20:58:25.446Z,1.00
2017-12-02T21:00:54.468Z,1.00
2017-12-02T21:03:22.743Z,1.00
2017-12-02T21:05:50.918Z,1.00
2017-12-02T21:08:21.181Z,1.00
2017-12-02T21:10:49.340Z,1.10
2017-12-02T21:13:17.501Z,1.10
2017-12-02T21:15:45.899Z,1.10
2017-12-02T21:18:20.086Z,1.00
2017-12-02T21:20:48.257Z,1.00
2017-12-02T21:23:16.644Z,0.90
2017-12-02T21:25:45.579Z,0.80
2017-12-02T21:28:13.749Z,0.80
2017-12-02T21:30:42.549Z,0.90
2017-12-02T21:33:10.722Z,0.90
2017-12-02T21:35:38.964Z,1.00
2017-12-02T21:38:11.142Z,1.00
2017-12-02T21:40:39.324Z,1.00
2017-12-02T21:43:07.473Z,1.00
2017-12-02T21:45:35.658Z,0.90
2017-12-02T21:48:03.825Z,0.90
2017-12-02T21:50:32.009Z,0.80
2017-12-02T21:53:00.166Z,0.70
2017-12-02T21:55:28.315Z,0.60
2017-12-02T21:57:56.506Z,0.60
2017-12-02T22:00:24.660Z,0.50
2017-12-02T22:02:52.837Z,0.50
2017-12-02T22:05:21.010Z,0.50
2017-12-02T22:07:53.495Z,0.50
2017-12-02T22:10:21.813Z,0.50
2017-12-02T22:12:51.174Z,0.60
2017-12-02T22:15:19.674Z,0.70
2017-12-02T22:17:47.838Z,0.60
2017-12-02T22:20:15.986Z,0.60
2017-12-02T22:22:44.144Z,0.60
2017-12-02T22:25:12.318Z,0.60
2017-12-02T22:27:40.497Z,0.70
2017-12-02T22:30:08.667Z,0.70
2017-12-02T22:32:36.851Z,0.80
2017-12-02T22:35:05.857Z,0.80
2017-12-02T22:37:34.054Z,0.80
2017-12-02T22:40:02.218Z,0.80
2017-12-02T22:42:30.462Z,0.80
2017-12-02T22:45:00.332Z,0.80
2017-12-02T22:47:30.528Z,0.70
2017-12-02T22:49:58.693Z,0.80
2017-12-02T22:52:26.912Z,0.80
2017-12-02T22:54:55.070Z,0.80
2017-12-02T22:57:23.247Z,0.80
2017-12-02T22:59:52.181Z,0.80
2017-12-02T23:02:20.374Z,0.80
2017-12-02T23:04:49.296Z,0.80
2017-12-02T23:07:17.504Z,0.80
2017-12-02T23:09:45.736Z,0.80
2017-12-02T23:12:13.899Z,0.80
2017-12-02T23:14:42.073Z,0.90
2017-12-02T23:17:10.384Z,0.90
2017-12-02T23:19:38.616Z,1.00
2017-12-02T23:22:07.568Z,0.90
2017-12-02T23:24:35.742Z,0.90
2017-12-02T23:27:05.425Z,1.00
2017-12-02T23:29:33.621Z,1.00
2017-12-02T23:32:01.797Z,1.00
2017-12-02T23:34:29.942Z,1.00
2017-12-02T23:36:58.113Z,1.00
2017-12-02T23:39:30.797Z,0.90
2017-12-02T23:41:59.664Z,0.90
2017-12-02T23:44:27.839Z,0.90
2017-12-02T23:46:57.820Z,0.90
2017-12-02T23:49:25.974Z,0.80
2017-12-02T23:51:54.149Z,0.70
2017-12-02T23:54:22.370Z,0.70
2017-12-02T23:56:51.066Z,0.70
2017-12-02T23:59:19.246Z,0.70
